createdAt,value
2023-04-12T00:00:57.872Z,9.10
2023-04-12T00:03:25.318Z,9.10
2023-04-12T00:05:55.916Z,9.10
2023-04-12T00:08:33.188Z,9.10
2023-04-12T00:11:01.054Z,9.00
2023-04-12T00:13:28.216Z,9.00
2023-04-12T00:15:55.046Z,9.00
2023-04-12T00:18:25.040Z,9.10
2023-04-12T00:20:52.474Z,9.00
2023-04-12T00:23:19.245Z,9.10
2023-04-12T00:25:46.205Z,9.20
2023-04-12T00:28:12.871Z,9.20
2023-04-12T00:30:41.126Z,9.10
2023-04-12T00:33:08.216Z,9.00
2023-04-12T00:35:34.877Z,9.00
2023-04-12T00:38:03.673Z,8.90
2023-04-12T00:40:30.550Z,8.80
2023-04-12T00:42:57.715Z,8.90
2023-04-12T00:45:27.242Z,8.60
2023-04-12T00:47:54.974Z,8.60
2023-04-12T00:50:23.184Z,8.60
2023-04-12T00:52:51.994Z,8.70
2023-04-12T00:55:18.705Z,8.70
2023-04-12T00:57:45.514Z,8.70
2023-04-12T01:00:12.738Z,8.70
2023-04-12T01:02:42.680Z,8.70
2023-04-12T01:05:14.577Z,8.70
2023-04-12T01:07:47.785Z,8.70
2023-04-12T01:10:32.081Z,8.70
2023-04-12T01:13:20.729Z,8.50
2023-04-12T01:16:06.312Z,8.40
2023-04-12T01:18:40.941Z,8.40
2023-04-12T01:21:16.225Z,8.20
2023-04-12T01:24:03.552Z,8.20
2023-04-12T01:26:41.296Z,8.20
2023-04-12T01:29:13.985Z,8.30
2023-04-12T01:31:44.771Z,8.30
2023-04-12T01:34:13.616Z,8.40
2023-04-12T01:36:42.502Z,8.30
2023-04-12T01:39:10.487Z,8.40
2023-04-12T01:41:45.447Z,8.20
2023-04-12T01:44:16.930Z,8.20
2023-04-12T01:46:47.251Z,8.10
2023-04-12T01:49:15.580Z,8.10
2023-04-12T01:51:55.514Z,7.90
2023-04-12T01:54:27.672Z,8.10
2023-04-12T01:56:58.695Z,8.10
2023-04-12T01:59:34.163Z,8.10
2023-04-12T02:02:02.211Z,8.00
2023-04-12T02:04:29.765Z,7.90
2023-04-12T02:06:56.898Z,7.90
2023-04-12T02:09:23.956Z,8.00
2023-04-12T02:11:50.693Z,8.00
2023-04-12T02:14:17.580Z,8.00
2023-04-12T02:16:45.703Z,8.00
2023-04-12T02:19:13.005Z,8.00
2023-04-12T02:21:43.807Z,7.90
2023-04-12T02:24:11.296Z,7.90
2023-04-12T02:26:38.887Z,7.80
2023-04-12T02:29:09.083Z,7.80
2023-04-12T02:31:38.739Z,7.90
2023-04-12T02:34:08.038Z,7.90
2023-04-12T02:36:37.868Z,7.80
2023-04-12T02:39:05.264Z,7.80
2023-04-12T02:41:34.784Z,7.80
2023-04-12T02:44:02.022Z,7.90
2023-04-12T02:46:28.968Z,8.00
2023-04-12T02:48:58.260Z,8.00
2023-04-12T02:51:32.750Z,8.00
2023-04-12T02:54:01.270Z,8.10
2023-04-12T02:56:37.789Z,8.10
2023-04-12T02:59:17.953Z,8.10
2023-04-12T03:02:11.490Z,7.80
2023-04-12T03:04:39.973Z,7.90
2023-04-12T03:07:11.389Z,7.90
2023-04-12T03:09:50.365Z,7.80
2023-04-12T03:12:18.867Z,7.80
2023-04-12T03:14:55.920Z,7.80
2023-04-12T03:17:25.692Z,7.80
2023-04-12T03:19:54.766Z,7.80
2023-04-12T03:22:23.014Z,7.80
2023-04-12T03:24:54.117Z,7.70
2023-04-12T03:27:22.040Z,7.60
2023-04-12T03:29:49.949Z,7.50
2023-04-12T03:32:19.522Z,7.60
2023-04-12T03:34:47.535Z,7.50
2023-04-12T03:37:17.321Z,7.40
2023-04-12T03:39:47.870Z,7.40
2023-04-12T03:42:32.361Z,7.50
2023-04-12T03:45:04.648Z,7.50
2023-04-12T03:47:33.185Z,7.60
2023-04-12T03:52:38.400Z,7.40
2023-04-12T03:55:07.830Z,7.40
2023-04-12T03:57:36.122Z,7.50
2023-04-12T04:00:04.676Z,7.70
2023-04-12T04:02:45.116Z,7.70
2023-04-12T04:05:13.300Z,7.70
2023-04-12T04:07:42.071Z,7.70
2023-04-12T04:10:10.393Z,7.80
2023-04-12T04:12:40.444Z,7.70
2023-04-12T04:15:11.221Z,7.70
2023-04-12T04:17:38.128Z,7.60
2023-04-12T04:20:07.402Z,7.60
2023-04-12T04:22:36.927Z,7.60
2023-04-12T04:25:04.516Z,7.50
2023-04-12T04:27:38.236Z,7.40
2023-04-12T04:30:07.327Z,7.50
2023-04-12T04:32:36.015Z,7.50
2023-04-12T04:35:03.582Z,7.60
2023-04-12T04:37:41.572Z,7.50
2023-04-12T04:40:08.828Z,7.60
2023-04-12T04:42:42.863Z,7.60
2023-04-12T04:45:13.929Z,7.60
2023-04-12T04:47:43.900Z,7.60
2023-04-12T04:50:11.059Z,7.50
2023-04-12T04:52:39.312Z,7.60
2023-04-12T04:55:11.499Z,7.60
2023-04-12T04:57:41.425Z,7.60
2023-04-12T05:00:11.733Z,7.50
2023-04-12T05:02:53.281Z,7.60
2023-04-12T05:05:26.613Z,7.60
2023-04-12T05:08:03.319Z,7.60
2023-04-12T05:10:32.378Z,7.60
2023-04-12T05:13:02.394Z,7.60
2023-04-12T05:15:31.819Z,7.70
2023-04-12T05:17:59.639Z,7.70
2023-04-12T05:20:26.529Z,7.60
2023-04-12T05:22:53.356Z,7.70
2023-04-12T05:25:20.867Z,7.60
2023-04-12T05:27:54.723Z,7.70
2023-04-12T05:30:21.680Z,7.70
2023-04-12T05:32:49.235Z,7.60
2023-04-12T05:35:18.082Z,7.70
2023-04-12T05:37:46.168Z,7.80
2023-04-12T05:40:13.962Z,7.80
2023-04-12T05:42:41.395Z,7.90
2023-04-12T05:45:08.668Z,7.90
2023-04-12T05:47:37.152Z,7.90
2023-04-12T05:50:06.406Z,7.90
2023-04-12T05:52:33.901Z,8.00
2023-04-12T05:55:00.951Z,7.90
2023-04-12T05:57:28.510Z,8.00
2023-04-12T05:59:55.509Z,8.10
2023-04-12T06:02:26.129Z,8.00
2023-04-12T06:04:55.604Z,8.00
2023-04-12T06:07:22.904Z,8.20
2023-04-12T06:09:49.937Z,8.20
2023-04-12T06:12:17.658Z,8.10
2023-04-12T06:14:47.529Z,8.20
2023-04-12T06:17:14.635Z,8.40
2023-04-12T06:19:42.053Z,8.40
2023-04-12T06:22:09.678Z,8.30
2023-04-12T06:24:38.125Z,8.40
2023-04-12T06:27:05.012Z,8.40
2023-04-12T06:29:32.207Z,8.30
2023-04-12T06:31:59.128Z,8.30
2023-04-12T06:34:26.195Z,8.20
2023-04-12T06:36:57.963Z,8.30
2023-04-12T06:39:25.124Z,8.20
2023-04-12T06:41:51.875Z,8.20
2023-04-12T06:44:21.452Z,8.40
2023-04-12T06:46:48.176Z,8.40
2023-04-12T06:49:14.940Z,8.40
2023-04-12T06:51:41.649Z,8.40
2023-04-12T06:54:08.373Z,8.40
2023-04-12T06:56:37.477Z,8.40
2023-04-12T06:59:04.251Z,8.40
2023-04-12T07:01:31.089Z,8.50
2023-04-12T07:03:57.944Z,8.50
2023-04-12T07:06:26.008Z,8.50
2023-04-12T07:08:53.250Z,8.40
2023-04-12T07:11:22.550Z,8.40
2023-04-12T07:13:51.114Z,8.40
2023-04-12T07:16:18.428Z,8.50
2023-04-12T07:18:45.646Z,8.50
2023-04-12T07:21:17.482Z,8.50
2023-04-12T07:23:46.591Z,8.40
2023-04-12T07:26:13.367Z,8.40
2023-04-12T07:28:40.230Z,8.50
2023-04-12T07:31:07.713Z,8.50
2023-04-12T07:33:35.990Z,8.60
2023-04-12T07:36:04.270Z,8.60
2023-04-12T07:38:31.152Z,8.60
2023-04-12T07:40:57.871Z,8.70
2023-04-12T07:43:24.644Z,8.60
2023-04-12T07:45:51.898Z,8.60
2023-04-12T07:48:18.662Z,8.60
2023-04-12T07:50:45.571Z,8.70
2023-04-12T07:53:28.639Z,8.70
2023-04-12T07:55:56.285Z,8.70
2023-04-12T07:58:24.343Z,8.80
2023-04-12T08:00:52.108Z,8.80
2023-04-12T08:03:19.355Z,8.80
2023-04-12T08:05:47.150Z,8.90
2023-04-12T08:08:14.168Z,8.90
2023-04-12T08:10:41.215Z,8.80
2023-04-12T08:13:08.700Z,8.90
2023-04-12T08:15:35.693Z,9.00
2023-04-12T08:18:04.484Z,8.90
2023-04-12T08:20:31.756Z,9.00
2023-04-12T08:22:59.013Z,9.00
2023-04-12T08:25:26.178Z,9.10
2023-04-12T08:27:52.903Z,9.10
2023-04-12T08:30:19.791Z,9.00
2023-04-12T08:32:46.730Z,9.00
2023-04-12T08:35:14.975Z,9.00
2023-04-12T08:37:42.146Z,9.10
2023-04-12T08:40:09.485Z,9.10
2023-04-12T08:42:37.435Z,9.10
2023-04-12T08:45:11.765Z,9.20
2023-04-12T08:47:43.232Z,9.20
2023-04-12T08:50:13.733Z,9.40
2023-04-12T08:52:41.487Z,9.40
2023-04-12T08:55:09.565Z,9.50
2023-04-12T08:57:39.622Z,9.50
2023-04-12T09:00:15.543Z,9.50
2023-04-12T09:02:46.314Z,9.50
2023-04-12T09:05:14.438Z,9.60
2023-04-12T09:07:42.111Z,9.70
2023-04-12T09:10:09.315Z,9.80
2023-04-12T09:12:44.639Z,9.90
2023-04-12T09:15:17.554Z,10.00
2023-04-12T09:17:44.447Z,9.80
2023-04-12T09:20:24.942Z,9.90
2023-04-12T09:22:54.142Z,9.80
2023-04-12T09:25:36.699Z,9.90
2023-04-12T09:28:05.015Z,10.00
2023-04-12T09:30:42.211Z,10.00
2023-04-12T09:33:15.958Z,10.10
2023-04-12T09:35:43.047Z,10.10
2023-04-12T09:38:11.028Z,10.20
2023-04-12T09:40:38.552Z,10.30
2023-04-12T09:43:06.156Z,10.20
2023-04-12T09:45:38.723Z,10.30
2023-04-12T09:48:06.618Z,10.40
2023-04-12T09:50:33.897Z,10.50
2023-04-12T09:53:02.762Z,10.50
2023-04-12T09:55:34.134Z,10.60
2023-04-12T09:58:04.168Z,10.60
2023-04-12T10:00:34.037Z,10.70
2023-04-12T10:03:01.350Z,11.00
2023-04-12T10:05:28.563Z,11.00
2023-04-12T10:07:58.714Z,10.90
2023-04-12T10:10:29.309Z,11.20
2023-04-12T10:12:56.784Z,11.20
2023-04-12T10:15:25.423Z,11.60
2023-04-12T10:17:57.697Z,11.90
2023-04-12T10:20:27.363Z,12.00
2023-04-12T10:22:56.590Z,12.00
2023-04-12T10:25:27.237Z,11.90
2023-04-12T10:27:54.074Z,11.60
2023-04-12T10:30:28.319Z,11.70
2023-04-12T10:33:10.363Z,11.80
2023-04-12T10:35:57.987Z,11.80
2023-04-12T10:38:27.137Z,11.70
2023-04-12T10:41:17.197Z,11.90
2023-04-12T10:43:47.882Z,12.00
2023-04-12T10:46:37.852Z,12.20
2023-04-12T10:49:22.552Z,12.10
2023-04-12T10:52:10.454Z,12.50
2023-04-12T10:54:37.383Z,12.20
2023-04-12T10:57:06.551Z,12.40
2023-04-12T10:59:54.225Z,12.40
2023-04-12T11:02:21.542Z,12.40
2023-04-12T11:05:05.810Z,12.40
2023-04-12T11:07:53.350Z,12.50
2023-04-12T11:10:39.197Z,12.50
2023-04-12T11:13:09.015Z,12.40
2023-04-12T11:15:39.615Z,12.10
2023-04-12T11:18:12.364Z,11.80
2023-04-12T11:20:40.881Z,11.80
2023-04-12T11:23:09.961Z,11.70
2023-04-12T11:25:38.432Z,11.90
2023-04-12T11:28:13.926Z,12.00
2023-04-12T11:30:54.655Z,11.80
2023-04-12T11:33:37.838Z,12.00
2023-04-12T11:36:06.331Z,12.10
2023-04-12T11:38:34.584Z,12.20
2023-04-12T11:41:01.664Z,12.10
2023-04-12T11:43:28.778Z,12.00
2023-04-12T11:46:00.287Z,11.90
2023-04-12T11:48:28.187Z,12.00
2023-04-12T11:51:07.654Z,12.10
2023-04-12T11:53:38.016Z,12.30
2023-04-12T11:56:04.945Z,12.70
2023-04-12T11:58:32.776Z,12.70
2023-04-12T12:01:00.235Z,12.90
2023-04-12T12:03:27.268Z,13.00
2023-04-12T12:05:54.555Z,13.10
2023-04-12T12:08:21.919Z,13.00
2023-04-12T12:11:06.313Z,13.10
2023-04-12T12:13:51.638Z,13.10
2023-04-12T12:16:19.657Z,13.20
2023-04-12T12:18:51.044Z,13.60
2023-04-12T12:21:19.321Z,13.40
2023-04-12T12:23:46.713Z,13.50
2023-04-12T12:26:25.065Z,13.50
2023-04-12T12:28:53.898Z,13.50
2023-04-12T12:31:23.242Z,13.40
2023-04-12T12:33:54.019Z,13.40
2023-04-12T12:36:21.077Z,13.10
2023-04-12T12:38:49.237Z,13.00
2023-04-12T12:41:20.883Z,12.90
2023-04-12T12:43:48.878Z,12.70
2023-04-12T12:46:17.541Z,12.70
2023-04-12T12:48:45.583Z,12.50
2023-04-12T12:51:17.572Z,12.30
2023-04-12T12:53:44.316Z,12.00
2023-04-12T12:56:13.599Z,11.50
2023-04-12T12:58:41.325Z,11.10
2023-04-12T13:01:08.867Z,11.10
2023-04-12T13:03:35.857Z,10.80
2023-04-12T13:06:02.619Z,10.80
2023-04-12T13:08:35.014Z,11.00
2023-04-12T13:11:01.655Z,11.00
2023-04-12T13:13:28.373Z,11.00
2023-04-12T13:15:55.993Z,11.20
2023-04-12T13:18:22.716Z,11.40
2023-04-12T13:20:49.389Z,11.50
2023-04-12T13:23:16.110Z,11.70
2023-04-12T13:25:42.971Z,11.80
2023-04-12T13:28:09.911Z,11.90
2023-04-12T13:30:36.616Z,12.00
2023-04-12T13:33:03.788Z,11.90
2023-04-12T13:35:30.547Z,11.90
2023-04-12T13:37:57.209Z,11.60
2023-04-12T13:40:23.883Z,11.60
2023-04-12T13:42:50.599Z,11.50
2023-04-12T13:45:17.265Z,11.40
2023-04-12T13:47:43.977Z,11.60
2023-04-12T13:50:10.987Z,11.80
2023-04-12T13:52:37.683Z,11.70
2023-04-12T13:55:08.124Z,11.70
2023-04-12T13:57:37.844Z,11.40
2023-04-12T14:00:05.146Z,11.60
2023-04-12T14:02:32.410Z,11.40
2023-04-12T14:05:00.161Z,11.40
2023-04-12T14:07:29.279Z,11.40
2023-04-12T14:09:57.683Z,11.40
2023-04-12T14:12:24.503Z,11.70
2023-04-12T14:14:51.185Z,12.00
2023-04-12T14:17:17.907Z,12.30
2023-04-12T14:19:44.558Z,12.40
2023-04-12T14:22:11.217Z,12.30
2023-04-12T14:24:38.102Z,12.50
2023-04-12T14:27:04.904Z,12.40
2023-04-12T14:29:31.914Z,12.20
2023-04-12T14:31:58.686Z,12.30
2023-04-12T14:34:25.481Z,12.40
2023-04-12T14:36:52.114Z,12.40
2023-04-12T14:39:18.851Z,11.90
2023-04-12T14:41:45.832Z,11.60
2023-04-12T14:44:12.518Z,11.60
2023-04-12T14:46:39.539Z,11.10
2023-04-12T14:49:06.235Z,10.90
2023-04-12T14:51:33.119Z,10.80
2023-04-12T14:54:00.018Z,10.90
2023-04-12T14:56:30.307Z,10.90
2023-04-12T14:58:58.244Z,11.10
2023-04-12T15:01:25.654Z,11.60
2023-04-12T15:03:55.554Z,11.60
2023-04-12T15:06:23.784Z,11.80
2023-04-12T15:08:55.026Z,11.90
2023-04-12T15:11:26.760Z,11.90
2023-04-12T15:13:54.775Z,11.80
2023-04-12T15:16:22.277Z,11.80
2023-04-12T15:18:50.598Z,11.40
2023-04-12T15:21:17.525Z,11.40
2023-04-12T15:23:44.835Z,11.50
2023-04-12T15:26:12.148Z,11.40
2023-04-12T15:28:38.935Z,11.50
2023-04-12T15:31:06.141Z,11.50
2023-04-12T15:33:34.843Z,11.50
2023-04-12T15:36:02.329Z,11.60
2023-04-12T15:38:29.883Z,11.60
2023-04-12T15:40:59.493Z,11.60
2023-04-12T15:43:27.421Z,11.60
2023-04-12T15:45:54.893Z,11.70
2023-04-12T15:48:23.361Z,11.70
2023-04-12T15:50:51.309Z,11.60
2023-04-12T15:53:21.444Z,11.60
2023-04-12T15:55:48.583Z,11.60
2023-04-12T15:58:15.457Z,11.80
2023-04-12T16:00:42.222Z,11.80
2023-04-12T16:03:10.213Z,11.90
2023-04-12T16:05:37.042Z,11.90
2023-04-12T16:08:04.110Z,11.90
2023-04-12T16:10:31.055Z,11.80
2023-04-12T16:12:57.808Z,11.80
2023-04-12T16:15:24.595Z,11.70
2023-04-12T16:17:55.979Z,11.70
2023-04-12T16:20:23.314Z,11.70
2023-04-12T16:22:54.412Z,11.80
2023-04-12T16:25:24.190Z,11.60
2023-04-12T16:27:51.626Z,11.60
2023-04-12T16:30:18.954Z,11.50
2023-04-12T16:32:46.817Z,11.50
2023-04-12T16:35:14.830Z,11.50
2023-04-12T16:37:42.537Z,11.60
2023-04-12T16:40:12.277Z,11.50
2023-04-12T16:42:43.205Z,11.40
2023-04-12T16:45:11.233Z,11.50
2023-04-12T16:47:39.019Z,11.40
2023-04-12T16:50:08.818Z,11.40
2023-04-12T16:52:36.747Z,11.40
2023-04-12T16:55:04.073Z,11.50
2023-04-12T16:57:31.145Z,11.40
2023-04-12T16:59:58.256Z,11.50
2023-04-12T17:02:25.985Z,11.40
2023-04-12T17:04:53.036Z,11.50
2023-04-12T17:07:19.866Z,11.40
2023-04-12T17:09:46.617Z,11.40
2023-04-12T17:12:13.428Z,11.30
2023-04-12T17:14:40.165Z,11.30
2023-04-12T17:17:07.307Z,11.20
2023-04-12T17:19:34.109Z,11.20
2023-04-12T17:22:01.034Z,11.30
2023-04-12T17:24:28.979Z,11.20
2023-04-12T17:26:56.206Z,11.20
2023-04-12T17:29:23.147Z,11.30
2023-04-12T17:31:54.167Z,11.30
2023-04-12T17:34:22.045Z,11.20
2023-04-12T17:36:49.181Z,11.10
2023-04-12T17:39:16.183Z,11.10
2023-04-12T17:41:43.116Z,11.00
2023-04-12T17:44:10.128Z,11.10
2023-04-12T17:46:37.267Z,11.10
2023-04-12T17:49:05.832Z,11.10
2023-04-12T17:51:33.095Z,11.10
2023-04-12T17:54:00.640Z,11.10
2023-04-12T17:56:27.922Z,11.10
2023-04-12T17:58:55.242Z,11.00
2023-04-12T18:01:22.622Z,11.00
2023-04-12T18:03:50.008Z,10.90
2023-04-12T18:06:18.573Z,10.80
2023-04-12T18:08:46.909Z,10.80
2023-04-12T18:11:14.522Z,10.80
2023-04-12T18:13:41.892Z,10.70
2023-04-12T18:16:08.874Z,10.70
2023-04-12T18:18:36.003Z,10.70
2023-04-12T18:21:04.610Z,10.90
2023-04-12T18:23:31.571Z,10.70
2023-04-12T18:25:58.299Z,10.30
2023-04-12T18:28:25.065Z,9.60
2023-04-12T18:30:51.756Z,9.30
2023-04-12T18:33:18.497Z,9.00
2023-04-12T18:35:45.635Z,8.90
2023-04-12T18:38:12.339Z,8.90
2023-04-12T18:40:39.130Z,8.70
2023-04-12T18:43:06.158Z,8.60
2023-04-12T18:45:32.918Z,8.50
2023-04-12T18:48:00.262Z,8.40
2023-04-12T18:50:27.524Z,8.40
2023-04-12T18:52:54.362Z,8.30
2023-04-12T18:55:21.209Z,8.30
2023-04-12T18:57:49.319Z,8.30
2023-04-12T19:00:16.764Z,8.20
2023-04-12T19:02:43.920Z,8.20
2023-04-12T19:05:11.619Z,8.20
2023-04-12T19:07:38.391Z,8.30
2023-04-12T19:10:05.483Z,8.20
2023-04-12T19:12:33.052Z,8.20
2023-04-12T19:14:59.933Z,8.20
2023-04-12T19:17:29.522Z,8.10
2023-04-12T19:19:57.012Z,8.00
2023-04-12T19:22:28.142Z,7.90
2023-04-12T19:24:55.054Z,7.90
2023-04-12T19:27:22.939Z,8.00
2023-04-12T19:29:51.408Z,8.00
2023-04-12T19:32:19.062Z,8.00
2023-04-12T19:34:47.460Z,7.90
2023-04-12T19:37:14.492Z,7.80
2023-04-12T19:39:41.752Z,7.80
2023-04-12T19:42:08.427Z,7.80
2023-04-12T19:44:35.162Z,7.80
2023-04-12T19:47:02.146Z,7.70
2023-04-12T19:49:29.360Z,7.60
2023-04-12T19:51:56.239Z,7.60
2023-04-12T19:54:23.904Z,7.50
2023-04-12T19:56:52.518Z,7.50
2023-04-12T19:59:19.969Z,7.50
2023-04-12T20:01:49.537Z,7.40
2023-04-12T20:04:19.596Z,7.40
2023-04-12T20:06:47.364Z,7.30
2023-04-12T20:09:14.719Z,7.30
2023-04-12T20:11:41.877Z,7.20
2023-04-12T20:14:08.948Z,7.20
2023-04-12T20:16:36.631Z,7.10
2023-04-12T20:19:04.890Z,7.00
2023-04-12T20:21:33.994Z,7.00
2023-04-12T20:24:01.990Z,7.00
2023-04-12T20:26:32.012Z,7.00
2023-04-12T20:29:00.440Z,7.00
2023-04-12T20:31:27.310Z,6.90
2023-04-12T20:34:04.049Z,6.80
2023-04-12T20:36:31.245Z,6.70
2023-04-12T20:38:58.112Z,6.70
2023-04-12T20:41:24.950Z,6.60
2023-04-12T20:43:51.659Z,6.60
2023-04-12T20:46:25.587Z,6.50
2023-04-12T20:48:56.499Z,6.50
2023-04-12T20:51:24.025Z,6.40
2023-04-12T20:53:51.589Z,6.40
2023-04-12T20:56:20.961Z,6.40
2023-04-12T20:58:49.628Z,6.20
2023-04-12T21:01:16.451Z,6.20
2023-04-12T21:03:43.569Z,6.20
2023-04-12T21:06:10.850Z,6.10
2023-04-12T21:08:38.906Z,6.00
2023-04-12T21:11:06.018Z,6.10
2023-04-12T21:13:33.318Z,6.00
2023-04-12T21:16:02.734Z,5.90
2023-04-12T21:18:32.132Z,5.90
2023-04-12T21:20:59.734Z,5.80
2023-04-12T21:23:27.967Z,5.80
2023-04-12T21:25:54.682Z,5.70
2023-04-12T21:28:22.887Z,5.70
2023-04-12T21:30:54.663Z,5.50
2023-04-12T21:33:25.021Z,5.50
2023-04-12T21:35:55.660Z,5.40
2023-04-12T21:38:22.997Z,5.40
2023-04-12T21:40:50.259Z,5.30
2023-04-12T21:43:18.300Z,5.30
2023-04-12T21:45:45.376Z,5.30
2023-04-12T21:48:14.313Z,5.20
2023-04-12T21:50:41.822Z,5.20
2023-04-12T21:53:08.534Z,5.20
2023-04-12T21:55:35.337Z,5.20
2023-04-12T21:58:02.091Z,5.30
2023-04-12T22:00:29.115Z,5.40
2023-04-12T22:02:56.412Z,5.40
2023-04-12T22:05:23.335Z,5.50
2023-04-12T22:07:50.268Z,5.60
2023-04-12T22:10:18.672Z,5.60
2023-04-12T22:12:50.102Z,5.80
2023-04-12T22:15:17.540Z,5.90
2023-04-12T22:17:45.179Z,6.00
2023-04-12T22:20:12.797Z,6.00
2023-04-12T22:22:40.361Z,6.00
2023-04-12T22:25:11.695Z,6.00
2023-04-12T22:27:39.276Z,6.10
2023-04-12T22:30:11.491Z,6.20
2023-04-12T22:32:39.259Z,6.20
2023-04-12T22:35:08.823Z,6.30
2023-04-12T22:37:41.026Z,6.30
2023-04-12T22:40:14.164Z,6.30
2023-04-12T22:42:46.580Z,6.20
2023-04-12T22:45:15.277Z,6.20
2023-04-12T22:47:42.967Z,6.30
2023-04-12T22:50:11.062Z,6.20
2023-04-12T22:52:38.310Z,6.30
2023-04-12T22:55:07.299Z,6.30
2023-04-12T22:57:35.039Z,6.40
2023-04-12T23:00:02.565Z,6.30
2023-04-12T23:02:29.543Z,6.40
2023-04-12T23:04:56.279Z,6.30
2023-04-12T23:07:23.186Z,6.40
2023-04-12T23:09:51.018Z,6.40
2023-04-12T23:12:17.801Z,6.40
2023-04-12T23:14:44.916Z,6.30
2023-04-12T23:17:12.108Z,6.40
2023-04-12T23:19:38.856Z,6.30
2023-04-12T23:22:06.026Z,6.30
2023-04-12T23:24:32.755Z,6.30
2023-04-12T23:27:00.341Z,6.30
2023-04-12T23:29:27.075Z,6.40
2023-04-12T23:31:53.767Z,6.40
2023-04-12T23:34:21.895Z,6.50
2023-04-12T23:36:50.079Z,6.30
2023-04-12T23:39:18.056Z,6.30
2023-04-12T23:41:45.434Z,6.30
2023-04-12T23:44:12.379Z,6.40
2023-04-12T23:46:39.110Z,6.40
2023-04-12T23:49:06.235Z,6.30
2023-04-12T23:51:33.389Z,6.30
2023-04-12T23:54:00.943Z,6.30
2023-04-12T23:56:27.759Z,6.30
2023-04-12T23:58:54.448Z,6.30
